Time;durP1;ratioP1;P1;durP2;ratioP2;P2;SDS_P1;SDS_P2;PMS_P1;PMS_P2;Temp;Humidity;BMP_temperature;BMP_pressure;BME280_temperature;BME280_humidity;BME280_pressure;Samples;Min_cycle;Max_cycle;Signal;HPM_P1;HPM_P2
2023/09/16 00:02:20;;;;;;;10.20;9.30;;;25.00;55.10;;;;;;5007854;28;20295;-44
2023/09/16 00:04:46;;;;;;;10.53;9.43;;;25.00;55.10;;;;;;5008580;28;20665;-46
2023/09/16 00:07:13;;;;;;;10.53;9.53;;;25.00;55.10;;;;;;5011448;28;20469;-45
2023/09/16 00:09:40;;;;;;;11.10;10.00;;;25.00;55.00;;;;;;5009376;28;20456;-44
2023/09/16 00:12:06;;;;;;;10.03;9.23;;;25.00;54.90;;;;;;5004782;28;20528;-45
2023/09/16 00:14:31;;;;;;;10.97;9.97;;;24.90;54.90;;;;;;5007386;28;20584;-44
2023/09/16 00:17:00;;;;;;;10.90;10.00;;;24.90;54.90;;;;;;5003286;28;20193;-48
2023/09/16 00:19:26;;;;;;;10.90;9.90;;;24.80;55.00;;;;;;4996275;28;20687;-45
2023/09/16 00:21:52;;;;;;;10.10;9.20;;;24.90;55.20;;;;;;5005281;28;20443;-48
2023/09/16 00:24:18;;;;;;;12.37;11.23;;;24.90;55.10;;;;;;5006663;28;22445;-48
2023/09/16 00:26:44;;;;;;;9.33;8.43;;;24.80;55.20;;;;;;5001726;28;20456;-46
2023/09/16 00:29:09;;;;;;;11.13;10.07;;;24.80;55.20;;;;;;5006438;28;20248;-44
2023/09/16 00:31:36;;;;;;;11.53;10.43;;;24.90;54.90;;;;;;5002866;28;20439;-46
2023/09/16 00:34:02;;;;;;;10.93;9.93;;;24.90;54.80;;;;;;4999236;28;20217;-50
2023/09/16 00:36:29;;;;;;;10.67;9.70;;;24.90;54.80;;;;;;5003772;28;20787;-46
2023/09/16 00:38:54;;;;;;;10.70;9.80;;;24.90;55.40;;;;;;4999480;28;20436;-48
2023/09/16 00:41:20;;;;;;;10.73;9.47;;;24.80;54.90;;;;;;5003944;28;20995;-46
2023/09/16 00:43:45;;;;;;;10.87;9.93;;;24.80;55.10;;;;;;5008725;28;20182;-48
2023/09/16 00:46:11;;;;;;;10.33;9.30;;;24.80;55.20;;;;;;5001475;28;21155;-46
2023/09/16 00:48:38;;;;;;;9.07;8.20;;;24.70;55.20;;;;;;5000388;28;20190;-45
2023/09/16 00:51:04;;;;;;;10.17;9.27;;;24.70;55.00;;;;;;5002713;28;20365;-50
2023/09/16 00:53:30;;;;;;;9.67;8.87;;;24.70;54.90;;;;;;5006996;28;20484;-47
2023/09/16 00:55:56;;;;;;;9.60;8.70;;;24.70;54.90;;;;;;5003619;28;20451;-45
2023/09/16 00:58:21;;;;;;;10.30;9.30;;;24.70;54.80;;;;;;4997351;28;20202;-50
2023/09/16 01:00:47;;;;;;;9.73;8.83;;;24.70;54.60;;;;;;5010346;28;20233;-48
2023/09/16 01:03:14;;;;;;;10.23;9.33;;;24.70;54.40;;;;;;5008658;28;20597;-44
2023/09/16 01:05:40;;;;;;;10.93;9.83;;;24.60;54.50;;;;;;5008760;28;20476;-51
2023/09/16 01:08:07;;;;;;;9.77;8.77;;;24.60;54.70;;;;;;5008037;28;20465;-47
2023/09/16 01:10:32;;;;;;;10.47;9.57;;;24.60;54.90;;;;;;5009039;28;20198;-46
2023/09/16 01:12:58;;;;;;;9.60;8.70;;;24.60;54.50;;;;;;5007713;28;20488;-45
2023/09/16 01:15:27;;;;;;;10.20;9.20;;;24.70;54.40;;;;;;5010648;28;20712;-46
2023/09/16 01:18:19;;;;;;;10.10;9.30;;;24.60;54.40;;;;;;5009057;28;20697;-49
2023/09/16 01:20:47;;;;;;;8.47;7.63;;;24.60;54.80;;;;;;4970128;28;20483;-45
2023/09/16 01:23:18;;;;;;;10.83;8.90;;;24.60;54.80;;;;;;5010625;28;20433;-48
2023/09/16 01:25:43;;;;;;;10.00;9.10;;;24.60;54.70;;;;;;5007856;28;20518;-45
2023/09/16 01:28:09;;;;;;;10.43;9.50;;;24.50;54.40;;;;;;5011620;28;20932;-51
2023/09/16 01:30:39;;;;;;;9.73;8.90;;;24.50;54.50;;;;;;5004943;28;20205;-48
2023/09/16 01:33:16;;;;;;;9.57;8.67;;;24.40;54.50;;;;;;5000158;28;20226;-45
2023/09/16 01:35:43;;;;;;;9.50;8.60;;;24.30;54.20;;;;;;5001640;28;20451;-49
2023/09/16 01:38:13;;;;;;;12.13;9.87;;;24.20;54.30;;;;;;5000212;28;20437;-48
2023/09/16 01:40:39;;;;;;;8.93;8.13;;;24.10;54.40;;;;;;5001425;28;20436;-49
2023/09/16 01:43:06;;;;;;;11.40;9.00;;;23.90;54.30;;;;;;5002153;28;20793;-46
2023/09/16 01:45:43;;;;;;;10.03;9.10;;;23.80;54.70;;;;;;4999105;28;21059;-45
2023/09/16 01:48:08;;;;;;;9.07;8.37;;;23.80;55.10;;;;;;5005979;28;20480;-46
2023/09/16 01:50:35;;;;;;;8.93;7.80;;;23.70;55.40;;;;;;5005735;28;20867;-47
2023/09/16 01:53:01;;;;;;;9.47;8.67;;;23.80;55.70;;;;;;5002543;28;20222;-51
2023/09/16 01:55:27;;;;;;;8.63;7.83;;;23.70;56.00;;;;;;5000701;28;20486;-47
2023/09/16 01:57:52;;;;;;;8.90;8.10;;;23.80;56.10;;;;;;5000287;28;20444;-45
2023/09/16 02:00:18;;;;;;;9.13;8.33;;;23.90;56.00;;;;;;5000581;28;20433;-48
2023/09/16 02:02:44;;;;;;;9.37;8.43;;;23.90;55.70;;;;;;4998246;28;20238;-47
2023/09/16 02:05:10;;;;;;;9.63;8.73;;;23.90;55.20;;;;;;5001086;28;20225;-48
2023/09/16 02:07:36;;;;;;;9.13;8.33;;;23.80;55.10;;;;;;5002232;28;20212;-49
2023/09/16 02:10:03;;;;;;;9.60;8.70;;;23.70;55.30;;;;;;5003848;28;20441;-50
2023/09/16 02:12:28;;;;;;;9.07;8.33;;;23.60;55.50;;;;;;5004545;28;20264;-48
2023/09/16 02:14:54;;;;;;;8.33;7.73;;;23.50;56.30;;;;;;5008799;28;20449;-46
2023/09/16 02:17:20;;;;;;;9.50;8.20;;;23.50;56.60;;;;;;5008226;28;20190;-45
2023/09/16 02:19:46;;;;;;;9.33;8.50;;;23.50;56.40;;;;;;5000666;28;21090;-50
2023/09/16 02:22:12;;;;;;;9.20;8.40;;;23.60;56.30;;;;;;5005483;28;20491;-48
2023/09/16 02:24:37;;;;;;;8.87;8.07;;;23.60;56.10;;;;;;5004468;28;20206;-47
2023/09/16 02:27:04;;;;;;;11.50;8.00;;;23.70;55.90;;;;;;5011432;28;20554;-49
2023/09/16 02:29:32;;;;;;;8.20;7.40;;;23.70;55.70;;;;;;5010697;28;20544;-49
2023/09/16 02:31:57;;;;;;;8.57;7.87;;;23.70;55.80;;;;;;5002057;28;20925;-50
2023/09/16 02:34:23;;;;;;;8.17;7.43;;;23.60;55.70;;;;;;5002255;28;20779;-48
2023/09/16 02:36:48;;;;;;;9.00;8.23;;;23.70;56.10;;;;;;5009381;28;20190;-50
2023/09/16 02:39:14;;;;;;;7.57;7.03;;;23.70;55.80;;;;;;5007492;28;20758;-50
2023/09/16 02:41:40;;;;;;;9.63;8.63;;;23.60;55.70;;;;;;5011072;28;20221;-49
2023/09/16 02:44:07;;;;;;;9.73;8.93;;;23.50;55.80;;;;;;5008376;28;20193;-49
2023/09/16 02:46:32;;;;;;;8.77;8.00;;;23.50;56.20;;;;;;5002558;28;20194;-51
2023/09/16 02:48:58;;;;;;;8.30;7.50;;;23.30;56.30;;;;;;5008242;28;20440;-47
2023/09/16 02:51:23;;;;;;;9.60;7.97;;;23.30;56.50;;;;;;5007816;28;20255;-47
2023/09/16 02:53:49;;;;;;;9.37;8.47;;;23.20;57.20;;;;;;5011964;28;20232;-47
2023/09/16 02:56:15;;;;;;;8.30;7.60;;;23.10;57.10;;;;;;5007258;28;20190;-51
2023/09/16 02:58:40;;;;;;;8.57;7.80;;;23.10;57.30;;;;;;5008410;28;20201;-49
2023/09/16 03:01:10;;;;;;;9.10;8.40;;;23.00;57.60;;;;;;5010757;28;20193;-48
2023/09/16 03:03:36;;;;;;;7.77;7.17;;;22.90;57.80;;;;;;5013887;28;20716;-49
2023/09/16 03:06:01;;;;;;;8.43;7.73;;;22.90;57.80;;;;;;5010583;28;20445;-45
2023/09/16 03:08:27;;;;;;;8.90;8.10;;;22.80;57.80;;;;;;5011999;28;20447;-48
2023/09/16 03:11:06;;;;;;;8.73;8.03;;;22.70;58.20;;;;;;5009919;28;20194;-45
2023/09/16 03:13:32;;;;;;;8.33;7.63;;;22.70;58.40;;;;;;5011507;28;20251;-48
2023/09/16 03:16:20;;;;;;;8.63;7.70;;;22.70;58.30;;;;;;5012836;28;20909;-47
2023/09/16 03:18:50;;;;;;;8.30;7.70;;;22.70;58.20;;;;;;5012192;28;20493;-45
2023/09/16 03:21:17;;;;;;;8.20;7.40;;;22.50;59.00;;;;;;5009397;28;20445;-45
2023/09/16 03:23:44;;;;;;;8.60;7.90;;;22.60;58.90;;;;;;5012055;28;20452;-44
2023/09/16 03:26:11;;;;;;;8.87;8.17;;;22.60;58.50;;;;;;5012751;28;20944;-44
2023/09/16 03:28:40;;;;;;;8.13;7.33;;;22.50;58.80;;;;;;5012777;28;20450;-45
2023/09/16 03:31:06;;;;;;;8.13;7.37;;;22.50;58.90;;;;;;5007736;28;20464;-45
2023/09/16 03:33:32;;;;;;;8.97;8.07;;;22.50;59.00;;;;;;5003446;28;20495;-45
2023/09/16 03:35:58;;;;;;;8.27;7.57;;;22.50;59.40;;;;;;5003034;28;20566;-44
2023/09/16 03:38:31;;;;;;;9.67;7.43;;;22.30;59.50;;;;;;4983522;28;20451;-45
2023/09/16 03:40:57;;;;;;;8.80;8.00;;;22.40;59.40;;;;;;5011980;28;20205;-47
2023/09/16 03:43:23;;;;;;;8.40;7.63;;;22.40;58.90;;;;;;5003851;28;20860;-44
2023/09/16 03:45:48;;;;;;;7.17;6.57;;;22.20;59.40;;;;;;5001185;28;20486;-48
2023/09/16 03:48:14;;;;;;;8.67;7.50;;;22.20;59.60;;;;;;5001192;28;20565;-44
2023/09/16 03:50:40;;;;;;;8.53;7.13;;;22.20;59.70;;;;;;5002495;28;20193;-47
2023/09/16 03:53:06;;;;;;;8.50;7.67;;;22.30;59.80;;;;;;5005300;28;20226;-50
2023/09/16 03:55:32;;;;;;;7.70;7.10;;;22.20;59.70;;;;;;4999113;28;20198;-49
2023/09/16 03:58:00;;;;;;;7.93;7.20;;;22.20;59.30;;;;;;5009531;28;20244;-44
2023/09/16 04:00:26;;;;;;;8.17;7.47;;;22.30;59.50;;;;;;5009110;28;20813;-45
2023/09/16 04:02:51;;;;;;;9.07;7.93;;;22.30;59.50;;;;;;4996630;28;20479;-44
2023/09/16 04:05:17;;;;;;;7.40;6.80;;;22.20;59.40;;;;;;5009594;28;20208;-44
2023/09/16 04:07:43;;;;;;;8.67;7.77;;;22.10;59.70;;;;;;5004321;28;20194;-50
2023/09/16 04:10:08;;;;;;;8.00;7.30;;;22.10;60.20;;;;;;5006214;28;20216;-45
2023/09/16 04:12:34;;;;;;;7.70;7.00;;;22.10;60.20;;;;;;5008563;28;20198;-46
2023/09/16 04:15:00;;;;;;;7.57;6.97;;;22.20;60.30;;;;;;5004793;28;20650;-44
2023/09/16 04:17:27;;;;;;;8.73;7.93;;;21.90;61.00;;;;;;4999880;28;20532;-50
2023/09/16 04:19:53;;;;;;;8.33;7.53;;;21.70;61.80;;;;;;5001978;28;20644;-45
2023/09/16 04:22:19;;;;;;;7.93;7.20;;;21.80;61.90;;;;;;5002780;28;20433;-45
2023/09/16 04:24:45;;;;;;;8.73;7.83;;;21.60;62.60;;;;;;5002296;28;20218;-47
2023/09/16 04:27:10;;;;;;;7.97;7.27;;;21.70;62.80;;;;;;5003546;28;20469;-49
2023/09/16 04:29:36;;;;;;;7.43;6.73;;;21.60;62.60;;;;;;5011196;28;20206;-45
2023/09/16 04:32:02;;;;;;;7.90;7.20;;;21.30;63.80;;;;;;5006423;28;20201;-45
2023/09/16 04:34:27;;;;;;;8.00;7.27;;;21.10;65.10;;;;;;5007655;28;20579;-46
2023/09/16 04:36:55;;;;;;;7.87;7.17;;;21.20;64.00;;;;;;5000699;28;20615;-48
2023/09/16 04:39:23;;;;;;;8.80;7.90;;;21.00;64.70;;;;;;4999089;28;20222;-49
2023/09/16 04:41:55;;;;;;;7.63;6.63;;;21.00;65.30;;;;;;4999999;28;20532;-45
2023/09/16 04:44:22;;;;;;;8.10;7.40;;;21.10;64.30;;;;;;5004657;28;20793;-51
2023/09/16 04:46:47;;;;;;;9.80;7.23;;;21.20;63.80;;;;;;5002292;28;20445;-44
2023/09/16 04:49:13;;;;;;;7.67;6.97;;;21.20;64.20;;;;;;5000204;28;20963;-45
2023/09/16 04:51:39;;;;;;;7.20;6.60;;;21.40;63.70;;;;;;5002776;28;20205;-45
2023/09/16 04:54:06;;;;;;;7.93;7.07;;;21.50;62.60;;;;;;5007094;28;20236;-50
2023/09/16 04:56:31;;;;;;;7.77;6.97;;;21.70;62.50;;;;;;5003053;28;20190;-44
2023/09/16 04:58:57;;;;;;;6.87;6.27;;;21.80;61.80;;;;;;5007101;28;20447;-46
2023/09/16 05:01:23;;;;;;;7.40;6.80;;;21.90;60.90;;;;;;4992672;28;20221;-46
2023/09/16 05:03:48;;;;;;;7.60;7.00;;;21.90;61.00;;;;;;5008398;28;20245;-45
2023/09/16 05:06:14;;;;;;;7.87;7.20;;;21.80;61.00;;;;;;5010021;28;20436;-47
2023/09/16 05:08:42;;;;;;;9.23;7.90;;;21.90;60.90;;;;;;5009980;28;20634;-45
2023/09/16 05:11:07;;;;;;;7.80;7.10;;;21.80;60.50;;;;;;5010176;28;20445;-45
2023/09/16 05:13:33;;;;;;;7.60;7.00;;;21.40;62.40;;;;;;5009824;28;20550;-44
2023/09/16 05:15:58;;;;;;;8.43;6.90;;;21.20;63.40;;;;;;5008419;28;20191;-44
2023/09/16 05:18:24;;;;;;;9.53;7.10;;;20.90;64.50;;;;;;5009651;28;20607;-47
2023/09/16 05:20:51;;;;;;;7.60;6.53;;;20.80;66.30;;;;;;5011275;28;20209;-47
2023/09/16 05:23:16;;;;;;;6.40;5.80;;;20.90;65.90;;;;;;5011546;28;20194;-44
2023/09/16 05:25:48;;;;;;;7.37;6.67;;;21.20;64.90;;;;;;5011346;28;20862;-44
2023/09/16 05:28:14;;;;;;;7.20;6.50;;;21.50;63.90;;;;;;5011150;28;20627;-45
2023/09/16 05:30:42;;;;;;;9.50;6.77;;;21.50;62.40;;;;;;5005824;28;20456;-45
2023/09/16 05:33:09;;;;;;;6.53;6.03;;;21.60;62.80;;;;;;5009379;28;20797;-46
2023/09/16 05:35:34;;;;;;;7.17;6.47;;;21.80;61.60;;;;;;5012475;28;20499;-45
2023/09/16 05:38:00;;;;;;;7.83;7.13;;;21.80;61.70;;;;;;5008144;28;20440;-47
2023/09/16 05:40:26;;;;;;;8.30;6.87;;;22.00;61.20;;;;;;5009340;28;20251;-44
2023/09/16 05:42:51;;;;;;;7.90;7.10;;;21.90;60.00;;;;;;5000764;28;20206;-46
2023/09/16 05:45:17;;;;;;;7.30;6.60;;;22.00;60.80;;;;;;4998616;28;20306;-49
2023/09/16 05:47:45;;;;;;;6.70;6.10;;;22.20;60.40;;;;;;5005221;28;20194;-47
2023/09/16 05:50:12;;;;;;;7.47;6.77;;;22.40;59.60;;;;;;5008318;28;20210;-47
2023/09/16 05:52:37;;;;;;;7.57;6.87;;;22.60;59.10;;;;;;5005327;28;20441;-46
2023/09/16 05:55:03;;;;;;;6.80;6.20;;;22.70;58.40;;;;;;5011107;28;20597;-46
2023/09/16 05:57:29;;;;;;;7.13;6.53;;;22.60;59.10;;;;;;5001864;28;20202;-46
2023/09/16 05:59:54;;;;;;;7.53;6.57;;;22.40;59.30;;;;;;4999232;28;20634;-46
2023/09/16 06:02:20;;;;;;;6.90;5.97;;;22.40;59.40;;;;;;5002317;28;20232;-46
2023/09/16 06:04:45;;;;;;;7.40;6.80;;;22.50;59.60;;;;;;5009035;28;20199;-45
2023/09/16 06:07:11;;;;;;;8.80;6.53;;;22.60;59.10;;;;;;5006051;28;20309;-46
2023/09/16 06:09:36;;;;;;;7.13;6.53;;;22.80;58.90;;;;;;5007906;28;20201;-47
2023/09/16 06:12:02;;;;;;;6.47;5.87;;;23.00;58.40;;;;;;5009866;28;20620;-46
2023/09/16 06:14:28;;;;;;;7.83;7.20;;;23.10;58.40;;;;;;5015636;28;20295;-47
2023/09/16 06:16:53;;;;;;;7.40;6.70;;;23.00;58.40;;;;;;5015712;28;20534;-49
2023/09/16 06:19:19;;;;;;;14.33;7.67;;;23.00;58.60;;;;;;5006799;28;20190;-47
2023/09/16 06:21:45;;;;;;;8.37;6.90;;;23.10;58.30;;;;;;5009181;28;20281;-48
2023/09/16 06:24:11;;;;;;;20.20;10.10;;;23.30;58.30;;;;;;5010045;28;20203;-47
2023/09/16 06:26:36;;;;;;;15.93;8.97;;;23.50;58.00;;;;;;5008278;28;20433;-46
2023/09/16 06:29:02;;;;;;;61.23;14.63;;;23.60;57.70;;;;;;5014626;28;20197;-47
2023/09/16 06:31:27;;;;;;;42.47;11.67;;;23.70;57.40;;;;;;5004823;28;20198;-50
2023/09/16 06:33:55;;;;;;;24.90;8.57;;;23.70;57.80;;;;;;4999621;28;20228;-46
2023/09/16 06:36:20;;;;;;;24.23;10.27;;;23.70;57.50;;;;;;5002220;28;20209;-48
2023/09/16 06:38:46;;;;;;;24.20;10.17;;;23.90;57.50;;;;;;5007145;28;20449;-47
2023/09/16 06:41:11;;;;;;;36.10;10.10;;;24.10;57.20;;;;;;5007691;28;20190;-46
2023/09/16 06:43:37;;;;;;;31.90;10.00;;;24.00;57.50;;;;;;5011986;28;20200;-48
2023/09/16 06:46:03;;;;;;;21.83;9.90;;;24.00;57.70;;;;;;5007866;28;20197;-45
2023/09/16 06:48:28;;;;;;;12.93;8.83;;;24.10;57.80;;;;;;5008895;28;20545;-46
2023/09/16 06:50:54;;;;;;;16.67;7.27;;;24.40;57.50;;;;;;5010097;28;20197;-45
2023/09/16 06:53:19;;;;;;;16.87;9.07;;;24.60;57.10;;;;;;5011404;28;20563;-51
2023/09/16 06:55:47;;;;;;;10.13;7.63;;;24.70;56.90;;;;;;5009959;28;20236;-46
2023/09/16 06:58:13;;;;;;;9.13;6.67;;;25.00;56.70;;;;;;5007490;28;20194;-47
2023/09/16 07:00:39;;;;;;;10.43;7.00;;;25.10;56.20;;;;;;5012788;28;20499;-49
2023/09/16 07:03:06;;;;;;;9.00;7.83;;;25.30;56.10;;;;;;5011056;28;20308;-45
2023/09/16 07:05:31;;;;;;;8.57;6.80;;;25.50;55.80;;;;;;5012359;28;20248;-49
2023/09/16 07:07:58;;;;;;;8.97;7.53;;;25.60;55.50;;;;;;5010438;28;20968;-49
2023/09/16 07:10:24;;;;;;;10.00;7.30;;;25.70;55.20;;;;;;5008788;28;20609;-49
2023/09/16 07:12:50;;;;;;;9.23;8.40;;;25.80;55.00;;;;;;5006217;28;20488;-47
2023/09/16 07:15:17;;;;;;;11.10;10.00;;;26.00;54.70;;;;;;5008795;28;20812;-47
2023/09/16 07:17:43;;;;;;;8.00;7.20;;;26.20;54.30;;;;;;5013493;28;20267;-46
2023/09/16 07:20:09;;;;;;;7.67;6.97;;;26.40;54.10;;;;;;5013476;28;20523;-46
2023/09/16 07:22:34;;;;;;;9.23;8.33;;;26.40;54.10;;;;;;5009124;28;20683;-46
2023/09/16 07:25:00;;;;;;;10.20;7.80;;;26.40;53.70;;;;;;5011691;28;20445;-46
2023/09/16 07:27:26;;;;;;;9.30;6.73;;;26.50;53.80;;;;;;5014172;28;20253;-46
2023/09/16 07:29:51;;;;;;;12.63;6.20;;;26.60;53.70;;;;;;5012329;28;20205;-46
2023/09/16 07:32:17;;;;;;;9.10;7.13;;;26.80;53.10;;;;;;5012503;28;20273;-52
2023/09/16 07:34:42;;;;;;;7.90;7.30;;;26.70;52.80;;;;;;5008668;28;20677;-48
2023/09/16 07:37:08;;;;;;;9.43;7.20;;;26.80;52.80;;;;;;5008895;28;20563;-47
2023/09/16 07:39:33;;;;;;;10.73;7.30;;;26.40;53.20;;;;;;5007470;28;20202;-46
2023/09/16 07:41:59;;;;;;;10.83;6.30;;;26.30;54.30;;;;;;5006307;28;20194;-50
2023/09/16 07:44:26;;;;;;;8.57;6.60;;;26.40;53.90;;;;;;5005792;28;20224;-46
2023/09/16 07:46:52;;;;;;;7.33;6.73;;;26.60;53.60;;;;;;5005134;28;20202;-45
2023/09/16 07:49:17;;;;;;;6.50;5.87;;;26.40;53.80;;;;;;5009051;28;20443;-45
2023/09/16 07:51:45;;;;;;;8.53;6.67;;;26.50;53.80;;;;;;5010979;28;20929;-47
2023/09/16 07:54:13;;;;;;;6.40;5.90;;;26.70;53.80;;;;;;5009093;28;20222;-50
2023/09/16 07:56:38;;;;;;;7.10;6.60;;;26.90;53.80;;;;;;5005356;28;20555;-44
2023/09/16 07:59:04;;;;;;;7.10;6.60;;;26.90;53.10;;;;;;5006978;28;20524;-45
2023/09/16 08:01:30;;;;;;;7.67;7.00;;;26.90;53.00;;;;;;5010313;28;20198;-49
2023/09/16 08:03:56;;;;;;;7.00;6.40;;;27.10;53.00;;;;;;5011147;28;20213;-49
2023/09/16 08:06:23;;;;;;;7.47;6.87;;;27.20;52.70;;;;;;5007843;28;20665;-48
2023/09/16 08:08:49;;;;;;;7.40;6.70;;;27.20;52.40;;;;;;5004265;28;20457;-47
2023/09/16 08:11:15;;;;;;;6.97;6.27;;;27.30;52.20;;;;;;5006143;28;20484;-49
2023/09/16 08:13:41;;;;;;;7.30;6.70;;;27.30;52.30;;;;;;5011859;28;20500;-46
2023/09/16 08:16:06;;;;;;;6.83;6.33;;;27.20;52.50;;;;;;5011258;28;20449;-47
2023/09/16 08:18:32;;;;;;;6.80;6.30;;;27.20;52.90;;;;;;5013909;28;20197;-48
2023/09/16 08:20:58;;;;;;;6.00;5.60;;;27.30;52.70;;;;;;5013749;28;20193;-45
2023/09/16 08:23:24;;;;;;;6.63;6.13;;;27.40;52.80;;;;;;5013488;28;20202;-45
2023/09/16 08:25:49;;;;;;;6.77;6.20;;;27.50;52.40;;;;;;5007531;28;20447;-46
2023/09/16 08:28:15;;;;;;;6.40;5.90;;;27.80;51.90;;;;;;5012710;28;20190;-45
2023/09/16 08:30:40;;;;;;;6.60;6.10;;;27.90;51.30;;;;;;5004884;28;20201;-45
2023/09/16 08:33:06;;;;;;;6.77;6.27;;;27.90;51.80;;;;;;5012695;28;20298;-48
2023/09/16 08:35:32;;;;;;;6.73;6.23;;;28.20;51.20;;;;;;5009817;28;20612;-50
2023/09/16 08:38:00;;;;;;;6.57;6.07;;;28.40;51.10;;;;;;5011352;28;20203;-48
2023/09/16 08:40:29;;;;;;;6.80;6.30;;;28.50;50.40;;;;;;5008670;28;20531;-51
2023/09/16 08:43:03;;;;;;;7.13;6.37;;;28.60;49.70;;;;;;5007436;28;20449;-50
2023/09/16 08:45:34;;;;;;;7.20;6.33;;;28.70;49.80;;;;;;5005393;28;20445;-48
2023/09/16 08:48:03;;;;;;;8.17;7.57;;;28.80;49.70;;;;;;5009908;28;20441;-51
2023/09/16 08:50:31;;;;;;;6.27;5.77;;;29.00;49.50;;;;;;5013185;28;20440;-49
2023/09/16 08:53:02;;;;;;;7.30;6.20;;;29.10;49.40;;;;;;5009902;28;20630;-45
2023/09/16 08:55:29;;;;;;;8.10;7.40;;;29.30;49.30;;;;;;5004775;28;21028;-50
2023/09/16 08:58:08;;;;;;;6.73;6.13;;;29.40;49.10;;;;;;5005367;28;20448;-45
2023/09/16 09:00:34;;;;;;;6.87;6.20;;;29.60;48.60;;;;;;4993503;28;20465;-52
2023/09/16 09:03:00;;;;;;;6.80;6.30;;;29.70;48.20;;;;;;5008780;28;20472;-49
2023/09/16 09:05:27;;;;;;;6.70;6.10;;;29.70;48.40;;;;;;4999391;28;20587;-51
2023/09/16 09:07:53;;;;;;;7.20;6.60;;;29.90;47.90;;;;;;5003916;28;20271;-53
2023/09/16 09:10:18;;;;;;;6.77;6.07;;;30.00;47.60;;;;;;5008493;28;20436;-51
2023/09/16 09:12:44;;;;;;;6.57;6.07;;;30.00;47.40;;;;;;5005565;28;20471;-46
2023/09/16 09:15:14;;;;;;;6.80;6.30;;;30.10;47.30;;;;;;5011370;28;20198;-47
2023/09/16 09:17:57;;;;;;;6.40;6.00;;;30.20;47.30;;;;;;5005846;28;20757;-47
2023/09/16 09:20:27;;;;;;;6.17;5.77;;;30.40;46.60;;;;;;5009082;28;20494;-47
2023/09/16 09:22:53;;;;;;;6.20;5.70;;;30.50;46.70;;;;;;5011273;28;20821;-51
2023/09/16 09:25:26;;;;;;;6.30;4.70;;;30.70;46.30;;;;;;5009234;28;20445;-47
2023/09/16 09:27:54;;;;;;;6.43;5.93;;;30.80;46.30;;;;;;5008317;28;20570;-46
2023/09/16 09:30:26;;;;;;;6.00;5.53;;;30.70;45.90;;;;;;5008027;28;20444;-47
2023/09/16 09:32:53;;;;;;;5.53;5.13;;;30.90;45.30;;;;;;5009446;28;20559;-48
2023/09/16 09:35:22;;;;;;;5.50;5.10;;;30.90;45.30;;;;;;5006885;28;20449;-46
2023/09/16 09:37:48;;;;;;;6.40;5.90;;;31.20;45.10;;;;;;5006264;28;20463;-46
2023/09/16 09:40:14;;;;;;;5.30;4.80;;;31.40;44.90;;;;;;5011148;28;20421;-49
2023/09/16 09:42:53;;;;;;;5.33;4.93;;;31.40;44.90;;;;;;5010419;28;20276;-51
2023/09/16 09:45:20;;;;;;;4.63;4.33;;;31.60;44.90;;;;;;5011427;28;20456;-49
2023/09/16 09:47:50;;;;;;;5.27;4.87;;;31.60;42.00;;;;;;5012664;28;20856;-53
2023/09/16 09:50:18;;;;;;;5.47;4.97;;;31.90;42.80;;;;;;5014270;28;20541;-52
2023/09/16 09:52:48;;;;;;;6.17;4.47;;;32.00;42.70;;;;;;5014260;28;20449;-53
2023/09/16 09:55:28;;;;;;;4.70;4.40;;;32.00;40.80;;;;;;5012299;28;20635;-52
2023/09/16 09:57:54;;;;;;;5.17;4.80;;;32.00;41.80;;;;;;5001121;28;20464;-49
2023/09/16 10:00:21;;;;;;;5.00;4.70;;;32.20;42.20;;;;;;5001728;28;20875;-52
2023/09/16 10:02:48;;;;;;;5.20;4.80;;;32.40;42.00;;;;;;5005653;28;20309;-46
2023/09/16 10:05:16;;;;;;;4.30;3.90;;;32.50;41.20;;;;;;5010088;28;20796;-52
2023/09/16 10:07:43;;;;;;;4.23;3.87;;;32.60;39.80;;;;;;5014083;28;20437;-50
2023/09/16 10:10:13;;;;;;;4.10;3.80;;;32.20;40.30;;;;;;5012922;28;20441;-51
2023/09/16 10:12:40;;;;;;;4.10;3.77;;;32.40;39.90;;;;;;5011708;28;20803;-48
2023/09/16 10:15:07;;;;;;;3.80;3.50;;;32.50;39.20;;;;;;5016226;28;20451;-51
2023/09/16 10:17:33;;;;;;;4.20;3.90;;;32.80;38.10;;;;;;5012954;28;20506;-46
2023/09/16 10:19:59;;;;;;;4.30;3.90;;;32.90;38.90;;;;;;5002142;28;20803;-52
2023/09/16 10:22:25;;;;;;;4.30;4.00;;;33.00;38.30;;;;;;5013191;28;20220;-48
2023/09/16 10:24:52;;;;;;;4.13;3.90;;;33.20;38.30;;;;;;5011142;28;20448;-50
2023/09/16 10:27:23;;;;;;;4.20;3.90;;;33.40;37.90;;;;;;5009150;28;20191;-53
2023/09/16 10:29:49;;;;;;;3.97;3.70;;;33.40;37.90;;;;;;5009781;28;20479;-51
2023/09/16 10:32:18;;;;;;;3.60;3.40;;;33.60;37.60;;;;;;5003286;28;20445;-52
2023/09/16 10:34:48;;;;;;;4.03;3.73;;;33.80;37.60;;;;;;5010174;28;20540;-51
2023/09/16 10:37:17;;;;;;;4.37;4.10;;;34.00;37.10;;;;;;5012638;28;20520;-51
2023/09/16 10:39:48;;;;;;;5.37;5.07;;;34.20;36.80;;;;;;5011052;28;20446;-50
2023/09/16 10:42:18;;;;;;;4.57;4.20;;;34.40;37.90;;;;;;5015705;28;20429;-51
2023/09/16 10:44:46;;;;;;;4.13;3.93;;;34.60;37.30;;;;;;5014023;28;20819;-50
2023/09/16 10:47:14;;;;;;;4.30;4.10;;;34.80;37.40;;;;;;5011620;28;20451;-51
2023/09/16 10:49:39;;;;;;;4.90;4.60;;;34.90;36.30;;;;;;5008786;28;20441;-51
2023/09/16 10:52:09;;;;;;;4.00;3.70;;;34.90;35.90;;;;;;5005825;28;20543;-48
2023/09/16 10:54:43;;;;;;;4.87;4.57;;;35.00;37.00;;;;;;5008698;28;20262;-52
2023/09/16 10:57:20;;;;;;;4.20;3.90;;;35.10;35.60;;;;;;5008706;28;20472;-45
2023/09/16 10:59:50;;;;;;;4.33;3.63;;;34.90;35.30;;;;;;5004610;28;20448;-50
2023/09/16 11:02:28;;;;;;;4.60;4.30;;;34.90;36.90;;;;;;5012403;28;20500;-45
2023/09/16 11:04:54;;;;;;;4.60;4.27;;;35.20;36.40;;;;;;5012322;28;20808;-45
2023/09/16 11:07:20;;;;;;;4.77;4.47;;;35.30;35.80;;;;;;5010761;28;20440;-45
2023/09/16 11:09:48;;;;;;;4.73;4.43;;;35.50;36.10;;;;;;5013643;28;20225;-45
2023/09/16 11:12:16;;;;;;;3.90;3.60;;;35.60;35.60;;;;;;5013982;28;20437;-45
2023/09/16 11:14:43;;;;;;;3.67;3.47;;;35.70;34.10;;;;;;5005175;28;20541;-46
2023/09/16 11:17:15;;;;;;;4.20;3.90;;;35.70;33.20;;;;;;5010809;28;20441;-45
2023/09/16 11:19:42;;;;;;;4.63;3.67;;;35.80;34.80;;;;;;5012039;28;20455;-46
2023/09/16 11:22:08;;;;;;;7.30;4.33;;;35.90;35.20;;;;;;5013912;28;20456;-46
2023/09/16 11:24:35;;;;;;;7.23;4.00;;;36.00;34.90;;;;;;5012617;28;20441;-45
2023/09/16 11:27:01;;;;;;;4.70;4.40;;;35.90;34.60;;;;;;5009057;28;20453;-48
2023/09/16 11:29:28;;;;;;;4.77;4.47;;;36.10;34.30;;;;;;5014402;28;20443;-45
2023/09/16 11:31:55;;;;;;;4.77;4.47;;;36.10;34.30;;;;;;5009307;28;20440;-45
2023/09/16 11:34:23;;;;;;;4.40;4.00;;;36.30;35.10;;;;;;5014558;28;20535;-47
2023/09/16 11:36:54;;;;;;;4.30;4.00;;;36.50;34.90;;;;;;5011524;28;20806;-45
2023/09/16 11:39:24;;;;;;;5.60;4.20;;;36.70;34.30;;;;;;5012608;28;20519;-45
2023/09/16 11:41:50;;;;;;;4.33;4.03;;;36.90;33.40;;;;;;5006752;28;20818;-45
2023/09/16 11:44:16;;;;;;;4.10;3.70;;;36.80;33.50;;;;;;5004165;28;20448;-47
2023/09/16 11:46:45;;;;;;;4.20;3.90;;;36.90;33.10;;;;;;5002721;28;20190;-45
2023/09/16 11:49:15;;;;;;;4.00;3.70;;;37.00;32.40;;;;;;5012831;28;20210;-46
2023/09/16 11:51:40;;;;;;;4.60;4.30;;;37.00;31.70;;;;;;5012621;28;21264;-46
2023/09/16 11:54:07;;;;;;;3.80;3.60;;;37.10;31.80;;;;;;5012450;28;20519;-46
2023/09/16 11:56:36;;;;;;;3.83;3.53;;;37.10;31.90;;;;;;5003775;28;20280;-45
2023/09/16 11:59:05;;;;;;;4.20;3.80;;;37.30;31.50;;;;;;5007321;28;20873;-45
2023/09/16 12:01:33;;;;;;;4.10;3.80;;;37.40;30.40;;;;;;5014070;28;20504;-47
2023/09/16 12:03:59;;;;;;;3.57;3.27;;;37.40;31.80;;;;;;5005857;28;20496;-49
2023/09/16 12:06:26;;;;;;;3.83;3.60;;;37.40;30.00;;;;;;5007562;28;20448;-46
2023/09/16 12:08:56;;;;;;;7.40;6.67;;;37.10;30.40;;;;;;5010819;28;20534;-45
2023/09/16 12:11:23;;;;;;;3.50;3.30;;;37.10;32.20;;;;;;5010297;28;20471;-46
2023/09/16 12:13:49;;;;;;;3.30;2.97;;;37.30;31.70;;;;;;5007006;28;20484;-47
2023/09/16 12:16:15;;;;;;;3.43;3.23;;;37.50;29.90;;;;;;5001346;28;20451;-45
2023/09/16 12:18:42;;;;;;;3.00;2.70;;;37.60;30.00;;;;;;4997962;28;20202;-48
2023/09/16 12:21:08;;;;;;;3.00;2.80;;;37.60;29.50;;;;;;5002961;28;21229;-48
2023/09/16 12:23:34;;;;;;;3.10;2.73;;;37.70;28.80;;;;;;5008922;28;20468;-45
2023/09/16 12:26:00;;;;;;;2.70;2.53;;;37.70;28.70;;;;;;5005467;28;20195;-46
2023/09/16 12:28:26;;;;;;;2.67;2.47;;;37.60;28.30;;;;;;5005578;28;20283;-46
2023/09/16 12:30:55;;;;;;;2.37;2.27;;;37.40;28.30;;;;;;5012147;28;20201;-48
2023/09/16 12:33:21;;;;;;;2.57;2.47;;;37.60;28.30;;;;;;5008324;28;20848;-47
2023/09/16 12:35:50;;;;;;;4.00;2.40;;;37.60;27.90;;;;;;5010912;28;20436;-45
2023/09/16 12:38:15;;;;;;;2.50;2.27;;;36.90;28.10;;;;;;5010793;28;20448;-45
2023/09/16 12:40:41;;;;;;;2.10;2.00;;;36.80;28.60;;;;;;5010522;28;20463;-45
2023/09/16 12:43:08;;;;;;;2.70;2.50;;;36.20;29.00;;;;;;5006615;28;20193;-45
2023/09/16 12:45:36;;;;;;;1.80;1.70;;;36.50;29.30;;;;;;5002494;28;20459;-45